createdAt,value
2022-08-21T00:00:29.308Z,67.70
2022-08-21T00:03:17.974Z,68.50
2022-08-21T00:06:06.868Z,69.60
2022-08-21T00:09:06.336Z,69.00
2022-08-21T00:11:55.260Z,69.00
2022-08-21T00:14:45.363Z,70.10
2022-08-21T00:17:35.075Z,71.00
2022-08-21T00:20:23.892Z,72.00
2022-08-21T00:23:12.683Z,72.70
2022-08-21T00:26:01.198Z,72.30
2022-08-21T00:28:49.933Z,72.40
2022-08-21T00:31:39.764Z,73.00
2022-08-21T00:34:28.330Z,73.50
2022-08-21T00:37:16.794Z,73.50
2022-08-21T00:40:06.286Z,74.10
2022-08-21T00:42:54.925Z,74.00
2022-08-21T00:45:43.511Z,73.90
2022-08-21T00:48:33.436Z,74.10
2022-08-21T00:51:26.587Z,76.70
2022-08-21T00:54:18.113Z,76.30
2022-08-21T00:57:12.301Z,75.30
2022-08-21T01:00:02.406Z,76.20
2022-08-21T01:02:50.881Z,76.30
2022-08-21T01:05:40.893Z,77.60
2022-08-21T01:08:30.035Z,77.40
2022-08-21T01:11:18.594Z,77.40
2022-08-21T01:14:07.250Z,78.50
2022-08-21T01:16:55.818Z,77.60
2022-08-21T01:19:44.367Z,78.40
2022-08-21T01:22:59.982Z,80.00
2022-08-21T01:25:48.673Z,80.50
2022-08-21T01:28:39.657Z,79.10
2022-08-21T01:31:28.715Z,80.30
2022-08-21T01:34:17.704Z,80.70
2022-08-21T01:37:06.474Z,80.40
2022-08-21T01:39:56.501Z,80.50
2022-08-21T01:42:45.353Z,80.70
2022-08-21T01:45:33.899Z,80.70
2022-08-21T01:48:22.539Z,80.90
2022-08-21T01:51:11.212Z,81.60
2022-08-21T01:53:59.842Z,81.60
2022-08-21T01:56:51.984Z,81.90
2022-08-21T01:59:40.614Z,82.90
2022-08-21T02:02:29.438Z,81.60
2022-08-21T02:05:18.129Z,81.70
2022-08-21T02:08:07.860Z,82.10
2022-08-21T02:10:56.595Z,82.60
2022-08-21T02:13:46.583Z,82.60
2022-08-21T02:16:35.564Z,83.30
2022-08-21T02:19:25.456Z,82.70
2022-08-21T02:22:14.083Z,83.00
2022-08-21T02:25:02.624Z,83.10
2022-08-21T02:27:54.086Z,83.60
2022-08-21T02:30:46.484Z,84.20
2022-08-21T02:33:35.328Z,84.90
2022-08-21T02:36:23.864Z,84.10
2022-08-21T02:39:12.460Z,84.40
2022-08-21T02:42:01.051Z,84.80
2022-08-21T02:44:50.011Z,86.00
2022-08-21T02:47:40.258Z,86.20
2022-08-21T02:50:30.528Z,87.30
2022-08-21T02:53:19.093Z,87.00
2022-08-21T02:56:09.852Z,86.60
2022-08-21T02:58:58.439Z,87.90
2022-08-21T03:01:47.091Z,88.10
2022-08-21T03:04:37.150Z,88.60
2022-08-21T03:07:25.714Z,90.00
2022-08-21T03:10:14.278Z,90.00
2022-08-21T03:13:03.365Z,89.90
2022-08-21T03:15:52.224Z,89.80
2022-08-21T03:18:41.702Z,90.10
2022-08-21T03:21:31.862Z,90.10
2022-08-21T03:24:21.342Z,90.50
2022-08-21T03:27:12.161Z,90.30
2022-08-21T03:30:01.139Z,90.50
2022-08-21T03:32:49.943Z,90.40
2022-08-21T03:35:38.661Z,90.70
2022-08-21T03:38:29.714Z,90.90
2022-08-21T03:41:18.357Z,91.30
2022-08-21T03:44:07.005Z,91.60
2022-08-21T03:46:55.589Z,91.30
2022-08-21T03:49:44.336Z,91.10
2022-08-21T03:52:32.904Z,91.50
2022-08-21T03:55:22.978Z,91.30
2022-08-21T03:58:16.923Z,91.70
2022-08-21T04:01:07.149Z,91.80
2022-08-21T04:03:55.729Z,92.00
2022-08-21T04:06:44.569Z,91.90
2022-08-21T04:09:33.252Z,92.10
2022-08-21T04:12:23.770Z,91.60
2022-08-21T04:15:13.578Z,92.50
2022-08-21T04:18:02.104Z,92.20
2022-08-21T04:20:52.082Z,92.30
2022-08-21T04:23:40.735Z,92.60
2022-08-21T04:26:29.314Z,92.60
2022-08-21T04:29:20.782Z,92.70
2022-08-21T04:32:09.410Z,92.80
2022-08-21T04:35:02.033Z,92.50
2022-08-21T04:37:50.870Z,93.00
2022-08-21T04:40:39.468Z,92.80
2022-08-21T04:43:29.339Z,92.80
2022-08-21T04:46:20.018Z,93.30
2022-08-21T04:49:08.490Z,93.20
2022-08-21T04:51:57.136Z,93.10
2022-08-21T04:54:47.037Z,93.30
2022-08-21T04:57:48.369Z,93.40
2022-08-21T05:00:38.150Z,93.80
2022-08-21T05:03:28.156Z,94.00
2022-08-21T05:06:16.858Z,94.00
2022-08-21T05:09:05.698Z,93.90
2022-08-21T05:11:54.293Z,94.20
2022-08-21T05:14:43.254Z,94.20
2022-08-21T05:17:32.007Z,94.20
2022-08-21T05:20:22.144Z,94.30
2022-08-21T05:23:11.326Z,94.50
2022-08-21T05:25:59.861Z,94.50
2022-08-21T05:28:48.513Z,94.60
2022-08-21T05:31:37.083Z,94.50
2022-08-21T05:34:26.202Z,94.60
2022-08-21T05:37:16.233Z,94.60
2022-08-21T05:40:21.364Z,94.50
2022-08-21T05:43:11.556Z,94.80
2022-08-21T05:46:00.661Z,95.00
2022-08-21T05:48:49.446Z,95.10
2022-08-21T05:51:38.083Z,95.50
2022-08-21T05:54:28.203Z,95.10
2022-08-21T05:57:16.743Z,94.70
2022-08-21T06:00:07.026Z,94.40
2022-08-21T06:03:01.614Z,94.00
2022-08-21T06:05:50.214Z,93.60
2022-08-21T06:08:38.937Z,93.30
2022-08-21T06:11:29.280Z,92.90
2022-08-21T06:14:18.039Z,92.30
2022-08-21T06:17:06.903Z,92.10
2022-08-21T06:19:55.538Z,91.80
2022-08-21T06:22:44.115Z,91.40
2022-08-21T06:25:32.735Z,90.40
2022-08-21T06:28:22.784Z,88.90
2022-08-21T06:31:16.319Z,85.10
2022-08-21T06:34:04.898Z,82.30
2022-08-21T06:36:53.483Z,82.60
2022-08-21T06:39:45.539Z,80.40
2022-08-21T06:42:34.208Z,78.10
2022-08-21T06:45:24.598Z,77.30
2022-08-21T06:48:18.431Z,75.00
2022-08-21T06:51:07.773Z,75.10
2022-08-21T06:53:56.590Z,75.40
2022-08-21T06:56:48.078Z,75.20
2022-08-21T06:59:36.699Z,74.90
2022-08-21T07:02:26.986Z,74.90
2022-08-21T07:05:18.448Z,74.10
2022-08-21T07:08:07.292Z,73.90
2022-08-21T07:10:56.147Z,72.40
2022-08-21T07:13:44.959Z,71.90
2022-08-21T07:16:33.750Z,70.80
2022-08-21T07:19:24.055Z,71.90
2022-08-21T07:22:12.688Z,71.00
2022-08-21T07:25:01.312Z,72.90
2022-08-21T07:27:49.870Z,73.40
2022-08-21T07:30:38.375Z,71.90
2022-08-21T07:33:27.715Z,71.60
2022-08-21T07:36:18.387Z,71.40
2022-08-21T07:39:06.996Z,68.60
2022-08-21T07:41:55.544Z,68.70
2022-08-21T07:44:44.234Z,68.70
2022-08-21T07:47:42.452Z,66.80
2022-08-21T07:50:31.711Z,67.90
2022-08-21T07:53:21.797Z,67.50
2022-08-21T07:56:12.023Z,66.30
2022-08-21T07:59:00.676Z,66.20
2022-08-21T08:01:49.257Z,64.70
2022-08-21T08:04:38.000Z,63.90
2022-08-21T08:07:39.337Z,64.00
2022-08-21T08:10:29.476Z,62.60
2022-08-21T08:13:18.140Z,62.70
2022-08-21T08:16:07.830Z,63.10
2022-08-21T08:18:56.804Z,62.80
2022-08-21T08:21:45.451Z,62.30
2022-08-21T08:24:34.057Z,62.20
2022-08-21T08:27:23.956Z,59.60
2022-08-21T08:30:14.628Z,59.50
2022-08-21T08:33:03.273Z,60.30
2022-08-21T08:35:53.157Z,59.40
2022-08-21T08:38:41.955Z,59.10
2022-08-21T08:41:33.372Z,60.00
2022-08-21T08:44:23.741Z,59.50
2022-08-21T08:47:13.514Z,59.70
2022-08-21T08:50:05.633Z,59.80
2022-08-21T08:52:58.698Z,59.70
2022-08-21T08:55:47.683Z,59.70
2022-08-21T08:58:40.108Z,59.00
2022-08-21T09:01:30.244Z,58.10
2022-08-21T09:04:22.436Z,58.90
2022-08-21T09:07:17.821Z,58.00
2022-08-21T09:10:19.384Z,57.60
2022-08-21T09:13:14.933Z,57.60
2022-08-21T09:16:07.785Z,58.10
2022-08-21T09:19:05.426Z,58.10
2022-08-21T09:22:01.186Z,57.70
2022-08-21T09:24:58.079Z,57.30
2022-08-21T09:27:46.894Z,57.60
2022-08-21T09:30:35.902Z,57.40
2022-08-21T09:33:24.454Z,56.60
2022-08-21T09:36:14.551Z,56.70
2022-08-21T09:39:03.121Z,55.80
2022-08-21T09:41:57.850Z,53.60
2022-08-21T09:44:47.297Z,51.20
2022-08-21T09:47:36.418Z,51.50
2022-08-21T09:50:27.779Z,51.60
2022-08-21T09:53:22.540Z,52.50
2022-08-21T09:56:38.823Z,51.10
2022-08-21T09:59:36.377Z,52.00
2022-08-21T10:02:29.121Z,52.00
2022-08-21T10:05:21.037Z,49.70
2022-08-21T10:08:20.979Z,50.00
2022-08-21T10:11:11.786Z,49.20
2022-08-21T10:14:06.011Z,49.20
2022-08-21T10:17:01.380Z,48.80
2022-08-21T10:19:55.146Z,48.70
2022-08-21T10:22:47.558Z,47.80
2022-08-21T10:25:56.369Z,48.10
2022-08-21T10:28:57.499Z,47.60
2022-08-21T10:31:56.540Z,47.40
2022-08-21T10:34:50.029Z,47.80
2022-08-21T10:37:49.365Z,46.90
2022-08-21T10:40:42.366Z,46.20
2022-08-21T10:43:36.098Z,47.90
2022-08-21T10:46:38.814Z,47.20
2022-08-21T10:49:35.264Z,47.30
2022-08-21T10:52:48.750Z,46.80
2022-08-21T10:55:43.277Z,47.20
2022-08-21T10:58:33.884Z,46.90
2022-08-21T11:01:28.617Z,47.40
2022-08-21T11:04:22.050Z,47.50
2022-08-21T11:07:17.553Z,47.20
2022-08-21T11:10:23.184Z,48.20
2022-08-21T11:13:20.093Z,47.50
2022-08-21T11:16:18.365Z,48.00
2022-08-21T11:19:11.477Z,47.80
2022-08-21T11:22:04.414Z,46.50
2022-08-21T11:24:56.864Z,45.40
2022-08-21T11:27:48.916Z,45.30
2022-08-21T11:30:46.636Z,45.60
2022-08-21T11:33:48.090Z,45.00
2022-08-21T11:36:45.222Z,45.30
2022-08-21T11:39:40.457Z,45.10
2022-08-21T11:42:34.745Z,44.10
2022-08-21T11:45:29.216Z,44.50
2022-08-21T11:48:34.989Z,42.60
2022-08-21T11:51:26.080Z,42.70
2022-08-21T11:54:22.763Z,42.20
2022-08-21T11:57:17.893Z,40.40
2022-08-21T12:00:10.058Z,40.20
2022-08-21T12:03:10.558Z,39.90
2022-08-21T12:06:02.132Z,40.40
2022-08-21T12:09:00.695Z,39.20
2022-08-21T12:11:50.117Z,39.00
2022-08-21T12:14:44.664Z,40.10
2022-08-21T12:17:38.753Z,39.30
2022-08-21T12:20:50.682Z,38.40
2022-08-21T12:23:50.542Z,38.50
2022-08-21T12:26:53.303Z,39.60
2022-08-21T12:29:47.468Z,39.10
2022-08-21T12:32:46.333Z,39.10
2022-08-21T12:35:39.779Z,38.30
2022-08-21T12:38:30.518Z,38.10
2022-08-21T12:41:24.137Z,39.30
2022-08-21T12:44:16.196Z,38.60
2022-08-21T12:47:07.175Z,39.70
2022-08-21T12:50:00.316Z,40.00
2022-08-21T12:52:56.492Z,39.60
2022-08-21T12:55:45.196Z,39.50
2022-08-21T12:58:35.125Z,39.30
2022-08-21T13:01:26.275Z,40.00
2022-08-21T13:04:19.084Z,39.40
2022-08-21T13:07:11.907Z,39.70
2022-08-21T13:10:03.480Z,39.30
2022-08-21T13:12:52.254Z,39.30
2022-08-21T13:15:47.593Z,39.70
2022-08-21T13:18:38.145Z,39.90
2022-08-21T13:21:31.749Z,40.00
2022-08-21T13:24:41.822Z,39.90
2022-08-21T13:27:32.546Z,40.10
2022-08-21T13:30:23.169Z,39.70
2022-08-21T13:33:13.640Z,39.90
2022-08-21T13:36:06.568Z,39.90
2022-08-21T13:38:55.853Z,40.40
2022-08-21T13:41:46.211Z,40.20
2022-08-21T13:44:37.289Z,38.70
2022-08-21T13:47:25.853Z,38.30
2022-08-21T13:50:16.669Z,38.70
2022-08-21T13:53:07.865Z,37.90
2022-08-21T13:56:00.558Z,38.60
2022-08-21T13:58:49.751Z,38.60
2022-08-21T14:01:41.127Z,38.50
2022-08-21T14:04:35.864Z,38.80
2022-08-21T14:07:28.285Z,38.50
2022-08-21T14:10:19.861Z,38.40
2022-08-21T14:13:09.095Z,38.30
2022-08-21T14:15:59.261Z,38.10
2022-08-21T14:18:51.370Z,38.30
2022-08-21T14:21:41.870Z,38.30
2022-08-21T14:24:32.375Z,38.60
2022-08-21T14:27:25.412Z,38.00
2022-08-21T14:30:19.368Z,38.50
2022-08-21T14:33:11.507Z,38.30
2022-08-21T14:36:00.281Z,38.00
2022-08-21T14:38:48.971Z,38.30
2022-08-21T14:41:39.345Z,38.40
2022-08-21T14:44:27.970Z,38.10
2022-08-21T14:47:16.529Z,38.80
2022-08-21T14:50:05.449Z,37.70
2022-08-21T14:52:54.493Z,37.90
2022-08-21T14:58:48.019Z,37.50
2022-08-21T15:01:46.083Z,37.90
2022-08-21T15:04:34.920Z,38.10
2022-08-21T15:07:23.514Z,38.20
2022-08-21T15:10:12.285Z,37.70
2022-08-21T15:13:01.182Z,38.00
2022-08-21T15:15:53.630Z,38.00
2022-08-21T15:18:42.843Z,37.80
2022-08-21T15:21:31.412Z,37.90
2022-08-21T15:24:20.018Z,37.60
2022-08-21T15:27:09.413Z,37.30
2022-08-21T15:29:58.295Z,37.60
2022-08-21T15:32:48.595Z,38.60
2022-08-21T15:35:37.476Z,38.10
2022-08-21T15:38:30.273Z,38.80
2022-08-21T15:41:19.096Z,38.00
2022-08-21T15:44:11.441Z,37.80
2022-08-21T15:47:00.705Z,38.10
2022-08-21T15:49:51.044Z,37.90
2022-08-21T15:52:40.191Z,37.50
2022-08-21T15:55:28.940Z,37.80
2022-08-21T15:58:18.032Z,37.80
2022-08-21T16:01:06.845Z,37.90
2022-08-21T16:03:55.440Z,37.70
2022-08-21T16:06:54.072Z,37.80
2022-08-21T16:09:45.358Z,37.60
2022-08-21T16:12:35.859Z,37.70
2022-08-21T16:15:24.522Z,37.70
2022-08-21T16:18:12.993Z,38.00
2022-08-21T16:21:01.515Z,37.60
2022-08-21T16:23:51.515Z,37.80
2022-08-21T16:26:40.012Z,37.70
2022-08-21T16:29:28.876Z,37.90
2022-08-21T16:32:18.368Z,38.10
2022-08-21T16:35:07.331Z,38.00
2022-08-21T16:37:55.993Z,37.70
2022-08-21T16:40:46.123Z,38.20
2022-08-21T16:43:34.651Z,38.10
2022-08-21T16:46:23.136Z,38.00
2022-08-21T16:49:11.727Z,38.30
2022-08-21T16:52:00.462Z,38.20
2022-08-21T16:54:48.902Z,38.20
2022-08-21T16:57:38.821Z,38.20
2022-08-21T17:00:27.297Z,38.20
2022-08-21T17:03:18.258Z,38.10
2022-08-21T17:06:07.302Z,38.30
2022-08-21T17:08:55.769Z,38.10
2022-08-21T17:11:47.614Z,38.20
2022-08-21T17:14:37.862Z,38.10
2022-08-21T17:17:26.396Z,38.00
2022-08-21T17:20:15.702Z,38.60
2022-08-21T17:23:04.418Z,39.30
2022-08-21T17:25:54.530Z,39.80
2022-08-21T17:28:43.155Z,40.20
2022-08-21T17:31:33.503Z,40.30
2022-08-21T17:34:21.988Z,40.20
2022-08-21T17:37:10.402Z,40.30
2022-08-21T17:39:58.872Z,40.60
2022-08-21T17:42:48.270Z,40.90
2022-08-21T17:45:37.165Z,41.30
2022-08-21T17:48:30.295Z,42.00
2022-08-21T17:51:19.081Z,42.30
2022-08-21T17:54:07.757Z,42.40
2022-08-21T17:56:56.182Z,42.40
2022-08-21T17:59:45.141Z,42.70
2022-08-21T18:02:34.003Z,43.10
2022-08-21T18:05:25.221Z,43.90
2022-08-21T18:08:14.558Z,43.40
2022-08-21T18:11:03.422Z,43.60
2022-08-21T18:13:52.032Z,43.80
2022-08-21T18:16:40.508Z,44.20
2022-08-21T18:19:29.085Z,44.30
2022-08-21T18:22:19.292Z,44.80
2022-08-21T18:25:08.928Z,44.80
2022-08-21T18:27:57.619Z,45.20
2022-08-21T18:30:46.723Z,45.10
2022-08-21T18:33:35.864Z,45.20
2022-08-21T18:36:24.721Z,45.50
2022-08-21T18:39:35.509Z,45.50
2022-08-21T18:42:28.383Z,46.20
2022-08-21T18:45:19.646Z,46.20
2022-08-21T18:48:09.393Z,46.50
2022-08-21T18:50:57.889Z,46.40
2022-08-21T18:53:48.453Z,46.40
2022-08-21T18:56:43.905Z,46.70
2022-08-21T18:59:32.679Z,47.00
2022-08-21T19:02:21.772Z,47.10
2022-08-21T19:05:13.533Z,47.10
2022-08-21T19:08:02.079Z,47.20
2022-08-21T19:10:52.073Z,47.20
2022-08-21T19:13:42.135Z,47.60
2022-08-21T19:16:30.566Z,47.70
2022-08-21T19:19:19.571Z,47.80
2022-08-21T19:22:10.834Z,47.90
2022-08-21T19:24:59.906Z,48.00
2022-08-21T19:27:48.734Z,47.80
2022-08-21T19:30:40.630Z,48.00
2022-08-21T19:33:33.639Z,48.30
2022-08-21T19:36:22.341Z,48.20
2022-08-21T19:39:11.062Z,48.10
2022-08-21T19:42:00.432Z,48.30
2022-08-21T19:44:54.195Z,48.50
2022-08-21T19:47:48.749Z,48.50
2022-08-21T19:50:38.043Z,48.70
2022-08-21T19:53:26.767Z,48.60
2022-08-21T19:56:20.474Z,48.70
2022-08-21T19:59:10.773Z,49.20
2022-08-21T20:01:59.504Z,48.90
2022-08-21T20:04:53.478Z,49.00
2022-08-21T20:07:43.404Z,49.10
2022-08-21T20:10:32.338Z,49.20
2022-08-21T20:13:22.377Z,49.20
2022-08-21T20:16:13.419Z,49.30
2022-08-21T20:19:03.674Z,49.60
2022-08-21T20:21:55.104Z,49.30
2022-08-21T20:24:46.595Z,49.00
2022-08-21T20:27:36.386Z,49.10
2022-08-21T20:30:29.312Z,49.10
2022-08-21T20:33:18.256Z,49.20
2022-08-21T20:36:07.361Z,49.10
2022-08-21T20:38:58.956Z,49.30
2022-08-21T20:41:47.779Z,49.10
2022-08-21T20:44:36.473Z,49.00
2022-08-21T20:47:25.420Z,49.30
2022-08-21T20:50:20.699Z,49.10
2022-08-21T20:53:13.446Z,49.60
2022-08-21T20:56:04.325Z,49.70
2022-08-21T20:58:56.197Z,49.80
2022-08-21T21:01:44.678Z,49.90
2022-08-21T21:04:37.804Z,49.70
2022-08-21T21:07:30.842Z,49.90
2022-08-21T21:10:26.657Z,49.90
2022-08-21T21:13:22.598Z,50.00
2022-08-21T21:16:13.788Z,49.90
2022-08-21T21:19:05.133Z,50.00
2022-08-21T21:21:58.234Z,50.00
2022-08-21T21:24:54.269Z,50.20
2022-08-21T21:27:48.958Z,50.30
2022-08-21T21:30:46.418Z,50.30
2022-08-21T21:33:35.326Z,50.50
2022-08-21T21:36:30.593Z,50.10
2022-08-21T21:39:25.044Z,50.40
2022-08-21T21:45:32.044Z,50.30
2022-08-21T21:48:27.661Z,50.30
2022-08-21T21:51:20.814Z,50.50
2022-08-21T21:54:18.760Z,50.50
2022-08-21T21:57:14.995Z,50.60
2022-08-21T22:00:10.134Z,50.60
2022-08-21T22:03:09.858Z,50.60
2022-08-21T22:06:07.947Z,50.70
2022-08-21T22:09:01.064Z,50.70
2022-08-21T22:12:02.398Z,50.70
2022-08-21T22:14:51.570Z,50.90
2022-08-21T22:17:45.576Z,50.50
2022-08-21T22:20:38.332Z,50.90
2022-08-21T22:23:34.297Z,51.00
2022-08-21T22:26:28.687Z,51.20
2022-08-21T22:29:20.369Z,51.10
2022-08-21T22:32:11.904Z,51.10
2022-08-21T22:41:33.924Z,51.40
2022-08-21T22:44:24.525Z,51.20
2022-08-21T22:47:21.053Z,51.30
2022-08-21T22:50:20.850Z,51.50
2022-08-21T22:53:09.972Z,51.90
2022-08-21T22:56:00.345Z,52.60
2022-08-21T22:58:57.323Z,52.20
2022-08-21T23:01:45.925Z,52.70
2022-08-21T23:04:48.293Z,52.10
2022-08-21T23:07:43.089Z,52.70
2022-08-21T23:10:35.107Z,52.70
2022-08-21T23:13:23.638Z,52.80
2022-08-21T23:16:31.597Z,52.30
2022-08-21T23:19:39.195Z,53.00
2022-08-21T23:22:37.484Z,53.00
2022-08-21T23:25:57.851Z,53.30
2022-08-21T23:28:59.033Z,54.00
2022-08-21T23:31:54.838Z,54.40
2022-08-21T23:34:45.823Z,54.60
2022-08-21T23:37:51.596Z,54.20
2022-08-21T23:40:51.381Z,54.20
2022-08-21T23:43:47.434Z,54.40
2022-08-21T23:46:54.030Z,54.60
2022-08-21T23:49:53.785Z,55.20
2022-08-21T23:52:52.728Z,55.40
2022-08-21T23:55:59.879Z,55.10
2022-08-21T23:58:54.229Z,55.40
